Time;durP1;ratioP1;P1;durP2;ratioP2;P2;SDS_P1;SDS_P2;PMS_P1;PMS_P2;Temp;Humidity;BMP_temperature;BMP_pressure;BME280_temperature;BME280_humidity;BME280_pressure;Samples;Min_cycle;Max_cycle;Signal;HPM_P1;HPM_P2
2023/12/19 00:00:28;;;;;;;3.33;1.48;;;3.80;99.90;;;;;;4972274;28;20184;-82
2023/12/19 00:02:56;;;;;;;2.70;1.50;;;3.90;99.90;;;;;;4971876;28;20180;-81
2023/12/19 00:05:24;;;;;;;4.60;1.33;;;3.90;99.90;;;;;;4971852;28;20646;-85
2023/12/19 00:07:51;;;;;;;3.47;1.73;;;3.90;99.90;;;;;;4971694;28;20180;-84
2023/12/19 00:10:19;;;;;;;3.58;1.40;;;3.90;99.90;;;;;;4971821;28;20188;-85
2023/12/19 00:12:46;;;;;;;4.07;1.65;;;3.80;99.90;;;;;;4971603;28;20215;-82
2023/12/19 00:15:14;;;;;;;2.25;1.17;;;3.90;99.90;;;;;;4971567;28;20251;-81
2023/12/19 00:17:43;;;;;;;2.97;1.50;;;3.90;99.90;;;;;;4970972;28;20539;-83
2023/12/19 00:20:11;;;;;;;12.32;2.25;;;3.80;99.90;;;;;;4971550;28;20263;-82
2023/12/19 00:22:38;;;;;;;2.65;1.38;;;3.90;99.90;;;;;;4971661;28;20188;-85
2023/12/19 00:25:06;;;;;;;5.28;1.73;;;3.90;99.90;;;;;;4971622;28;20662;-84
2023/12/19 00:27:34;;;;;;;8.57;2.22;;;3.90;99.90;;;;;;4954195;28;20208;-84
2023/12/19 00:30:01;;;;;;;5.05;2.50;;;3.90;99.90;;;;;;4954445;28;20663;-84
2023/12/19 00:32:29;;;;;;;6.65;2.35;;;3.90;99.90;;;;;;4952912;28;20195;-86
2023/12/19 00:34:56;;;;;;;7.22;2.85;;;4.00;99.90;;;;;;4937975;28;20738;-82
2023/12/19 00:37:24;;;;;;;9.65;3.50;;;3.90;99.90;;;;;;4953814;28;20251;-80
2023/12/19 00:39:58;;;;;;;10.43;4.40;;;3.90;99.90;;;;;;5086520;28;20595;-82
2023/12/19 00:42:26;;;;;;;13.02;4.72;;;3.90;99.90;;;;;;5085622;28;20274;-83
2023/12/19 00:44:53;;;;;;;10.02;4.43;;;3.90;99.90;;;;;;5085661;28;20230;-84
2023/12/19 00:47:21;;;;;;;7.93;3.60;;;3.90;99.90;;;;;;5085922;28;20566;-84
2023/12/19 00:49:48;;;;;;;7.38;3.28;;;4.00;99.90;;;;;;5086948;28;20184;-83
2023/12/19 00:52:16;;;;;;;3.95;2.20;;;4.00;99.90;;;;;;5086579;28;20288;-82
2023/12/19 00:54:44;;;;;;;11.45;2.95;;;4.00;99.90;;;;;;5085592;28;20180;-82
2023/12/19 00:57:11;;;;;;;13.50;2.35;;;3.90;99.90;;;;;;5085225;28;20183;-83
2023/12/19 00:59:40;;;;;;;5.25;1.80;;;4.00;99.90;;;;;;5084917;28;20212;-83
2023/12/19 01:02:07;;;;;;;2.95;1.58;;;3.90;99.90;;;;;;5086175;28;20184;-85
2023/12/19 01:04:35;;;;;;;2.78;1.40;;;4.00;99.90;;;;;;5086164;28;20188;-83
2023/12/19 01:07:03;;;;;;;4.20;1.23;;;3.90;99.90;;;;;;5118567;28;20227;-84
2023/12/19 01:09:30;;;;;;;8.70;1.60;;;4.00;99.90;;;;;;5086219;28;20574;-83
2023/12/19 01:11:59;;;;;;;3.47;1.45;;;4.00;99.90;;;;;;5084842;28;20267;-85
2023/12/19 01:14:26;;;;;;;2.80;1.25;;;4.00;99.90;;;;;;5085082;28;20184;-83
2023/12/19 01:16:54;;;;;;;2.60;1.20;;;4.00;99.90;;;;;;5085998;28;20589;-83
2023/12/19 01:19:21;;;;;;;2.63;1.02;;;4.00;99.90;;;;;;5084426;28;20211;-84
2023/12/19 01:21:49;;;;;;;2.83;1.30;;;4.00;99.90;;;;;;5084694;28;20759;-84
2023/12/19 01:24:16;;;;;;;5.53;1.25;;;4.00;99.90;;;;;;5084644;28;20200;-84
2023/12/19 01:26:44;;;;;;;3.25;1.20;;;4.00;99.90;;;;;;5084421;28;20180;-84
2023/12/19 01:29:12;;;;;;;3.42;1.50;;;4.10;99.90;;;;;;5085887;28;20187;-85
2023/12/19 01:31:39;;;;;;;2.75;1.33;;;4.00;99.90;;;;;;5084485;28;20245;-83
2023/12/19 01:34:07;;;;;;;1.77;0.90;;;4.00;99.90;;;;;;5085758;28;20188;-85
2023/12/19 01:36:34;;;;;;;2.03;1.02;;;4.00;99.90;;;;;;5084226;28;20641;-84
2023/12/19 01:39:02;;;;;;;3.28;1.30;;;4.00;99.90;;;;;;5085298;28;20302;-86
2023/12/19 01:41:30;;;;;;;5.85;1.27;;;4.00;99.90;;;;;;5084131;28;20291;-82
2023/12/19 01:43:58;;;;;;;2.35;0.90;;;4.10;99.90;;;;;;5085474;28;20191;-83
2023/12/19 01:46:26;;;;;;;2.47;1.38;;;4.10;99.90;;;;;;5085335;28;20797;-82
2023/12/19 01:48:54;;;;;;;2.65;1.25;;;4.10;99.90;;;;;;5085418;28;20208;-85
2023/12/19 01:51:22;;;;;;;2.92;1.48;;;4.10;99.90;;;;;;5071818;28;20188;-83
2023/12/19 01:53:50;;;;;;;2.28;1.13;;;4.10;99.90;;;;;;5070822;28;20199;-86
2023/12/19 01:56:20;;;;;;;2.78;1.35;;;4.10;99.90;;;;;;5070611;28;20185;-82
2023/12/19 01:58:48;;;;;;;3.42;1.33;;;4.10;99.90;;;;;;5070016;28;20212;-84
2023/12/19 02:01:17;;;;;;;2.88;1.25;;;4.10;99.90;;;;;;5071640;28;20712;-84
2023/12/19 02:03:46;;;;;;;5.63;1.98;;;4.10;99.90;;;;;;5071660;28;20184;-84
2023/12/19 02:06:14;;;;;;;3.60;1.23;;;4.10;99.90;;;;;;5070064;28;20181;-85
2023/12/19 02:08:41;;;;;;;4.15;1.42;;;4.10;99.90;;;;;;5071488;28;20219;-84
2023/12/19 02:11:09;;;;;;;11.45;2.25;;;4.10;99.90;;;;;;5070235;28;20197;-84
2023/12/19 02:13:38;;;;;;;3.05;1.27;;;4.10;99.90;;;;;;5071568;28;20547;-85
2023/12/19 02:16:06;;;;;;;5.18;1.70;;;4.10;99.90;;;;;;5071387;28;20238;-84
2023/12/19 02:18:33;;;;;;;4.47;1.65;;;4.00;99.90;;;;;;5071297;28;20678;-85
2023/12/19 02:21:01;;;;;;;4.32;1.55;;;4.10;99.90;;;;;;5069934;28;20197;-84
2023/12/19 02:23:28;;;;;;;9.27;2.13;;;4.10;99.90;;;;;;5071126;28;20542;-85
2023/12/19 02:25:56;;;;;;;5.28;1.90;;;4.10;99.90;;;;;;5068507;28;20192;-83
2023/12/19 02:28:24;;;;;;;3.45;1.52;;;4.10;99.90;;;;;;5052552;28;20250;-85
2023/12/19 02:30:52;;;;;;;5.57;2.05;;;4.10;99.90;;;;;;5063412;28;20207;-85
2023/12/19 02:33:19;;;;;;;5.00;1.80;;;4.10;99.90;;;;;;5050166;28;20190;-83
2023/12/19 02:35:47;;;;;;;7.75;2.17;;;4.10;99.90;;;;;;5049806;28;20243;-85
2023/12/19 02:38:14;;;;;;;5.93;1.63;;;4.10;99.90;;;;;;5058227;28;20229;-85
2023/12/19 02:40:42;;;;;;;3.70;1.67;;;4.10;99.90;;;;;;5049613;28;20211;-85
2023/12/19 02:43:09;;;;;;;4.60;1.42;;;4.20;99.90;;;;;;5050799;28;20573;-83
2023/12/19 02:45:37;;;;;;;10.18;2.10;;;4.10;99.90;;;;;;5050790;28;20718;-84
2023/12/19 02:48:04;;;;;;;2.75;1.40;;;4.10;99.90;;;;;;5050856;28;20190;-84
2023/12/19 02:50:32;;;;;;;2.65;1.38;;;4.10;99.90;;;;;;5050623;28;20551;-84
2023/12/19 02:52:59;;;;;;;2.70;1.33;;;4.10;99.90;;;;;;5049372;28;20185;-85
2023/12/19 02:55:28;;;;;;;3.22;1.40;;;4.10;99.90;;;;;;5049410;28;20270;-85
2023/12/19 02:57:57;;;;;;;3.45;1.73;;;4.10;99.90;;;;;;5049615;28;20255;-84
2023/12/19 03:00:24;;;;;;;1.70;1.00;;;4.10;99.90;;;;;;5069256;28;20950;-84
2023/12/19 03:02:52;;;;;;;2.80;1.30;;;4.10;99.90;;;;;;5069387;28;20211;-82
2023/12/19 03:05:19;;;;;;;3.22;1.20;;;4.10;99.90;;;;;;5070440;28;20260;-83
2023/12/19 03:07:47;;;;;;;2.30;1.20;;;4.10;99.90;;;;;;5070267;28;20265;-84
2023/12/19 03:10:15;;;;;;;3.97;1.30;;;4.10;99.90;;;;;;5068938;28;20556;-83
2023/12/19 03:12:42;;;;;;;2.78;1.13;;;4.10;99.90;;;;;;5068954;28;20574;-84
2023/12/19 03:15:10;;;;;;;2.42;1.23;;;4.20;99.90;;;;;;5070584;28;20196;-83
2023/12/19 03:17:37;;;;;;;1.52;0.80;;;4.20;99.90;;;;;;5068675;28;20283;-83
2023/12/19 03:20:06;;;;;;;1.40;0.80;;;4.10;99.90;;;;;;5069966;28;20219;-83
2023/12/19 03:22:33;;;;;;;1.48;0.90;;;4.20;99.90;;;;;;5070065;28;20264;-83
2023/12/19 03:25:00;;;;;;;2.63;1.05;;;4.10;99.90;;;;;;5070097;28;20238;-84
2023/12/19 03:27:28;;;;;;;1.90;0.98;;;4.10;99.90;;;;;;5068366;28;20204;-83
2023/12/19 03:29:55;;;;;;;2.85;1.10;;;4.10;99.90;;;;;;5068670;28;20283;-83
2023/12/19 03:32:23;;;;;;;1.88;0.90;;;4.10;99.90;;;;;;5068766;28;20193;-83
2023/12/19 03:34:50;;;;;;;2.45;1.27;;;4.10;99.90;;;;;;5070542;28;20180;-84
2023/12/19 03:37:17;;;;;;;2.33;1.30;;;4.10;99.90;;;;;;5070222;28;20195;-83
2023/12/19 03:39:45;;;;;;;2.60;1.23;;;4.10;99.90;;;;;;5068807;28;20274;-83
2023/12/19 03:42:12;;;;;;;2.08;1.10;;;4.20;99.90;;;;;;5069948;28;20246;-82
2023/12/19 03:44:41;;;;;;;2.40;1.20;;;4.10;99.90;;;;;;5069796;28;20185;-80
2023/12/19 03:47:12;;;;;;;2.15;1.13;;;4.10;99.90;;;;;;5069820;28;20185;-83
2023/12/19 03:49:40;;;;;;;2.08;1.08;;;4.10;99.90;;;;;;5060709;28;20492;-83
2023/12/19 03:52:08;;;;;;;2.92;1.42;;;4.10;99.90;;;;;;5050006;28;20197;-83
2023/12/19 03:54:36;;;;;;;2.80;1.48;;;4.10;99.90;;;;;;5048430;28;20262;-82
2023/12/19 03:57:04;;;;;;;2.42;1.40;;;4.20;99.90;;;;;;5049661;28;20282;-84
2023/12/19 03:59:32;;;;;;;2.20;1.35;;;4.20;99.90;;;;;;5049641;28;20243;-84
2023/12/19 04:01:59;;;;;;;2.00;1.15;;;4.20;99.90;;;;;;5068549;28;20187;-80
2023/12/19 04:04:27;;;;;;;2.75;1.10;;;4.20;99.90;;;;;;5053073;28;20664;-84
2023/12/19 04:06:55;;;;;;;2.90;1.23;;;4.20;99.90;;;;;;5049860;28;20181;-83
2023/12/19 04:09:22;;;;;;;1.77;1.08;;;4.20;99.90;;;;;;5069472;28;20949;-84
2023/12/19 04:11:50;;;;;;;1.52;1.00;;;4.20;99.90;;;;;;5069188;28;20192;-83
2023/12/19 04:14:18;;;;;;;1.70;0.82;;;4.10;99.90;;;;;;5068925;28;20184;-84
2023/12/19 04:16:45;;;;;;;1.20;0.73;;;4.20;99.90;;;;;;5051742;28;20193;-83
2023/12/19 04:19:13;;;;;;;1.45;0.90;;;4.20;99.90;;;;;;5049127;28;20209;-84
2023/12/19 04:21:41;;;;;;;0.70;0.60;;;4.10;99.90;;;;;;5048078;28;20239;-82
2023/12/19 04:24:10;;;;;;;1.02;0.73;;;4.20;99.90;;;;;;5047877;28;20196;-85
2023/12/19 04:26:37;;;;;;;1.50;0.88;;;4.20;99.90;;;;;;5064669;28;20241;-84
2023/12/19 04:29:05;;;;;;;0.93;0.82;;;4.20;99.90;;;;;;5049306;28;20273;-83
2023/12/19 04:31:32;;;;;;;2.17;0.60;;;4.30;99.90;;;;;;5055417;28;20197;-82
2023/12/19 04:34:01;;;;;;;0.98;0.82;;;4.20;99.90;;;;;;5069067;28;20196;-83
2023/12/19 04:36:31;;;;;;;0.90;0.60;;;4.20;99.90;;;;;;5067596;28;20188;-83
2023/12/19 04:38:58;;;;;;;1.08;0.73;;;4.30;99.90;;;;;;5067418;28;20234;-84
2023/12/19 04:41:26;;;;;;;1.38;0.90;;;4.30;99.90;;;;;;5067436;28;20199;-84
2023/12/19 04:43:53;;;;;;;1.58;0.95;;;4.40;99.90;;;;;;5067665;28;20189;-85
2023/12/19 04:46:21;;;;;;;0.93;0.75;;;4.30;99.90;;;;;;5067670;28;20191;-83
2023/12/19 04:48:48;;;;;;;0.90;0.80;;;4.30;99.90;;;;;;5068866;28;20658;-83
2023/12/19 04:51:20;;;;;;;1.10;0.70;;;4.30;99.90;;;;;;5067459;28;20230;-84
2023/12/19 04:53:49;;;;;;;1.20;0.73;;;4.30;99.90;;;;;;5067431;28;20200;-84
2023/12/19 04:56:16;;;;;;;0.73;0.63;;;4.30;99.90;;;;;;5068810;28;20673;-83
2023/12/19 04:58:46;;;;;;;0.90;0.55;;;4.30;99.90;;;;;;5058347;28;20189;-82
2023/12/19 05:01:14;;;;;;;2.13;0.88;;;4.30;99.90;;;;;;5048810;28;20609;-84
2023/12/19 05:03:42;;;;;;;1.05;0.70;;;4.30;99.90;;;;;;5067750;28;20216;-82
2023/12/19 05:06:16;;;;;;;0.70;0.68;;;4.40;99.90;;;;;;5067282;28;20292;-83
2023/12/19 05:08:46;;;;;;;0.80;0.63;;;4.30;99.90;;;;;;5068609;28;20181;-82
2023/12/19 05:11:14;;;;;;;1.58;0.95;;;4.30;99.90;;;;;;5067516;28;20184;-84
2023/12/19 05:13:41;;;;;;;1.73;1.38;;;4.30;99.90;;;;;;5068040;28;20594;-84
2023/12/19 05:16:15;;;;;;;2.28;1.42;;;4.40;99.90;;;;;;5065522;28;20205;-82
2023/12/19 05:18:43;;;;;;;2.60;1.75;;;4.40;99.90;;;;;;5066034;28;20694;-82
2023/12/19 05:21:12;;;;;;;3.03;1.92;;;4.40;99.90;;;;;;5050894;28;20185;-84
2023/12/19 05:23:40;;;;;;;3.03;1.98;;;4.40;99.90;;;;;;5048364;28;20264;-85
2023/12/19 05:26:08;;;;;;;5.30;2.25;;;4.40;99.90;;;;;;5056707;28;20216;-82
2023/12/19 05:28:38;;;;;;;5.22;2.65;;;4.40;99.90;;;;;;5072334;28;20191;-85
2023/12/19 05:31:06;;;;;;;4.18;2.70;;;4.40;99.90;;;;;;5069857;28;20199;-86
2023/12/19 05:33:34;;;;;;;4.15;2.50;;;4.30;99.90;;;;;;5071970;28;20264;-84
2023/12/19 05:36:02;;;;;;;5.72;3.33;;;4.40;99.90;;;;;;5051843;28;20675;-83
2023/12/19 05:38:33;;;;;;;5.70;3.30;;;4.50;99.90;;;;;;5054057;28;20233;-83
2023/12/19 05:41:02;;;;;;;6.05;3.65;;;4.50;99.90;;;;;;5050438;28;20220;-83
2023/12/19 05:43:30;;;;;;;5.05;3.20;;;4.50;99.90;;;;;;5043819;28;20200;-82
2023/12/19 05:45:59;;;;;;;6.68;3.53;;;4.50;99.90;;;;;;5070726;28;20718;-86
2023/12/19 05:48:27;;;;;;;8.57;4.78;;;4.50;99.90;;;;;;5071901;28;20173;-85
2023/12/19 05:50:55;;;;;;;6.68;4.45;;;4.60;99.90;;;;;;5070309;28;20200;-84
2023/12/19 05:53:22;;;;;;;6.25;3.97;;;4.50;99.90;;;;;;5070571;28;20716;-82
2023/12/19 05:55:51;;;;;;;7.95;4.38;;;4.50;99.90;;;;;;5070361;28;20672;-84
2023/12/19 05:58:18;;;;;;;9.55;4.53;;;4.50;99.90;;;;;;5050521;28;20197;-81
2023/12/19 06:00:48;;;;;;;9.15;5.03;;;4.50;99.90;;;;;;5051618;28;20227;-84
2023/12/19 06:03:16;;;;;;;7.72;4.32;;;4.50;99.90;;;;;;5050235;28;20193;-82
2023/12/19 06:05:44;;;;;;;8.52;4.85;;;4.50;99.90;;;;;;5064873;28;20196;-83
2023/12/19 06:08:11;;;;;;;8.65;4.57;;;4.50;99.90;;;;;;5057889;28;20184;-83
2023/12/19 06:10:39;;;;;;;7.57;4.38;;;4.60;99.90;;;;;;5064667;28;20224;-85
2023/12/19 06:13:06;;;;;;;8.07;4.57;;;4.60;99.90;;;;;;5071312;28;20584;-82
2023/12/19 06:15:34;;;;;;;7.50;4.28;;;4.50;99.90;;;;;;5071599;28;20216;-82
2023/12/19 06:18:01;;;;;;;7.07;3.97;;;4.60;99.90;;;;;;5065326;28;20279;-85
2023/12/19 06:20:29;;;;;;;8.48;4.22;;;4.60;99.90;;;;;;5068424;28;20216;-83
2023/12/19 06:22:56;;;;;;;6.05;3.70;;;4.50;99.90;;;;;;5054173;28;20185;-86
2023/12/19 06:25:24;;;;;;;6.32;3.17;;;4.60;99.90;;;;;;5070880;28;20185;-84
2023/12/19 06:27:52;;;;;;;5.28;3.47;;;4.60;99.90;;;;;;5071441;28;20181;-83
2023/12/19 06:30:19;;;;;;;5.25;3.08;;;4.60;99.90;;;;;;5066089;28;20199;-83
2023/12/19 06:32:56;;;;;;;4.90;3.10;;;4.70;99.90;;;;;;5062699;28;20722;-81
2023/12/19 06:35:27;;;;;;;3.88;2.50;;;4.60;99.90;;;;;;5053594;28;20287;-82
2023/12/19 06:37:55;;;;;;;5.03;3.08;;;4.50;99.90;;;;;;5051235;28;20316;-84
2023/12/19 06:40:23;;;;;;;6.40;3.42;;;4.50;99.90;;;;;;5051546;28;20205;-84
2023/12/19 06:42:51;;;;;;;5.43;2.97;;;4.60;99.90;;;;;;5051351;28;20588;-84
2023/12/19 06:45:18;;;;;;;6.68;2.92;;;4.60;99.90;;;;;;5051080;28;20197;-83
2023/12/19 06:47:46;;;;;;;5.38;2.90;;;4.60;99.90;;;;;;5050948;28;20667;-82
2023/12/19 06:50:15;;;;;;;4.05;2.85;;;4.60;99.90;;;;;;5050666;28;20243;-84
2023/12/19 06:52:42;;;;;;;4.35;2.55;;;4.60;99.90;;;;;;5053630;28;20185;-85
2023/12/19 06:55:13;;;;;;;5.47;3.38;;;4.60;99.90;;;;;;5051373;28;20184;-85
2023/12/19 06:57:40;;;;;;;4.15;2.83;;;4.70;99.90;;;;;;5051994;28;20170;-85
2023/12/19 07:00:08;;;;;;;3.55;2.33;;;4.70;99.90;;;;;;5051734;28;20208;-85
2023/12/19 07:02:36;;;;;;;4.72;2.85;;;4.70;99.90;;;;;;5067824;28;20242;-84
2023/12/19 07:05:04;;;;;;;3.58;2.35;;;4.60;99.90;;;;;;5071123;28;20184;-84
2023/12/19 07:07:32;;;;;;;3.17;2.20;;;4.60;99.90;;;;;;5071133;28;20185;-84
2023/12/19 07:10:01;;;;;;;2.85;1.73;;;4.70;99.90;;;;;;5069743;28;20189;-87
2023/12/19 07:12:29;;;;;;;1.98;1.38;;;4.60;99.90;;;;;;5071078;28;20187;-86
2023/12/19 07:14:57;;;;;;;1.90;1.23;;;4.70;99.90;;;;;;5070987;28;20180;-85
2023/12/19 07:17:25;;;;;;;2.08;1.00;;;4.70;99.90;;;;;;5071337;28;20195;-84
2023/12/19 07:19:52;;;;;;;2.20;1.05;;;4.60;99.90;;;;;;5069587;28;20212;-86
2023/12/19 07:22:20;;;;;;;2.20;1.52;;;4.60;99.90;;;;;;5070955;28;20597;-85
2023/12/19 07:24:47;;;;;;;2.45;1.30;;;4.70;99.90;;;;;;5070604;28;20214;-85
2023/12/19 07:27:15;;;;;;;3.95;1.60;;;4.70;99.90;;;;;;5069164;28;20769;-84
2023/12/19 07:29:42;;;;;;;2.13;1.38;;;4.70;99.90;;;;;;5054023;28;20196;-84
2023/12/19 07:32:10;;;;;;;1.95;1.30;;;4.70;99.90;;;;;;5050704;28;20766;-85
2023/12/19 07:34:37;;;;;;;1.77;1.20;;;4.80;99.90;;;;;;5049660;28;20284;-83
2023/12/19 07:37:04;;;;;;;1.23;1.13;;;4.70;99.90;;;;;;5062787;28;20189;-84
2023/12/19 07:39:32;;;;;;;1.92;1.13;;;4.70;99.90;;;;;;5050618;28;20225;-85
2023/12/19 07:42:00;;;;;;;2.20;1.60;;;4.70;99.90;;;;;;5082646;28;20196;-86
2023/12/19 07:44:28;;;;;;;2.60;1.38;;;4.80;99.90;;;;;;5050424;28;20197;-87
2023/12/19 07:46:57;;;;;;;3.40;1.30;;;4.80;99.90;;;;;;5065658;28;20193;-86
2023/12/19 07:49:24;;;;;;;1.75;1.00;;;4.90;99.90;;;;;;5049892;28;20192;-84
2023/12/19 07:51:52;;;;;;;1.80;1.20;;;4.80;99.90;;;;;;5049071;28;20181;-85
2023/12/19 07:54:20;;;;;;;1.85;1.08;;;4.90;99.90;;;;;;5050430;28;20184;-86
2023/12/19 07:56:47;;;;;;;2.20;1.30;;;4.90;99.90;;;;;;5050206;28;20711;-84
2023/12/19 07:59:14;;;;;;;3.53;1.08;;;4.80;99.90;;;;;;5051836;28;20184;-85
2023/12/19 08:01:48;;;;;;;0.90;0.70;;;4.90;99.90;;;;;;5050943;28;20282;-85
2023/12/19 08:04:17;;;;;;;0.80;0.70;;;4.90;99.90;;;;;;5050303;28;20252;-84
2023/12/19 08:06:45;;;;;;;2.10;0.60;;;4.90;99.90;;;;;;5050096;28;20265;-84
2023/12/19 08:09:14;;;;;;;0.80;0.55;;;4.90;99.90;;;;;;5050090;28;20216;-85
2023/12/19 08:11:41;;;;;;;1.17;0.68;;;4.90;99.90;;;;;;5061171;28;20756;-83
2023/12/19 08:14:09;;;;;;;0.98;0.70;;;5.00;99.90;;;;;;5069572;28;20188;-85
2023/12/19 08:16:36;;;;;;;0.68;0.50;;;5.10;99.90;;;;;;5069636;28;20570;-83
2023/12/19 08:19:04;;;;;;;1.23;0.63;;;5.00;99.90;;;;;;5068263;28;20188;-84
2023/12/19 08:21:32;;;;;;;1.05;0.73;;;5.00;99.90;;;;;;5068376;28;20912;-83
2023/12/19 08:23:59;;;;;;;1.00;0.60;;;5.00;99.90;;;;;;5068614;28;20196;-83
2023/12/19 08:26:27;;;;;;;0.93;0.60;;;5.00;99.90;;;;;;5068483;28;20680;-82
2023/12/19 08:28:55;;;;;;;1.17;0.70;;;4.90;99.90;;;;;;5068267;28;20577;-84
2023/12/19 08:31:22;;;;;;;1.13;0.80;;;5.00;99.90;;;;;;5069919;28;20208;-84
2023/12/19 08:33:50;;;;;;;1.23;1.00;;;5.00;99.90;;;;;;5069994;28;20184;-84
2023/12/19 08:36:17;;;;;;;3.17;0.70;;;5.00;99.90;;;;;;5069668;28;20188;-85
2023/12/19 08:39:01;;;;;;;2.45;0.90;;;5.00;99.90;;;;;;5068403;28;20231;-84
2023/12/19 08:41:29;;;;;;;1.25;0.73;;;5.00;99.90;;;;;;5068191;28;20208;-83
2023/12/19 08:43:56;;;;;;;1.00;0.80;;;5.00;99.90;;;;;;5069623;28;20185;-83
2023/12/19 08:46:24;;;;;;;1.25;1.00;;;5.10;99.90;;;;;;5069509;28;20192;-83
2023/12/19 08:48:51;;;;;;;1.00;0.80;;;5.10;99.90;;;;;;5069562;28;20646;-86
2023/12/19 08:51:19;;;;;;;1.65;1.05;;;5.10;99.90;;;;;;5068564;28;20196;-84
2023/12/19 08:53:46;;;;;;;1.23;1.00;;;5.10;99.90;;;;;;5068767;28;20254;-85
2023/12/19 08:56:14;;;;;;;1.73;0.85;;;5.10;99.90;;;;;;5067494;28;20229;-85
2023/12/19 08:58:44;;;;;;;0.70;0.50;;;5.10;99.90;;;;;;5090688;28;20565;-85
2023/12/19 09:01:13;;;;;;;0.75;0.65;;;5.10;99.90;;;;;;5051067;28;20205;-80
2023/12/19 09:03:42;;;;;;;0.95;0.70;;;5.10;99.90;;;;;;5053456;28;20660;-84
2023/12/19 09:06:11;;;;;;;1.00;0.77;;;5.10;99.90;;;;;;5053352;28;20259;-83
2023/12/19 09:08:40;;;;;;;1.08;0.70;;;5.10;99.90;;;;;;5051997;28;20191;-84
2023/12/19 09:11:08;;;;;;;2.22;1.08;;;5.10;99.90;;;;;;5068656;28;20678;-83
2023/12/19 09:13:38;;;;;;;1.45;1.02;;;5.10;99.90;;;;;;5053339;28;20235;-82
2023/12/19 09:16:06;;;;;;;1.27;0.80;;;5.00;99.90;;;;;;5058759;28;20195;-83
2023/12/19 09:18:34;;;;;;;0.90;0.68;;;5.10;99.90;;;;;;5072250;28;20734;-86
2023/12/19 09:21:02;;;;;;;0.73;0.60;;;5.10;99.90;;;;;;5072070;28;20215;-84
2023/12/19 09:23:29;;;;;;;1.15;0.88;;;5.20;99.90;;;;;;5073008;28;20181;-84
2023/12/19 09:25:57;;;;;;;1.27;0.70;;;5.30;99.90;;;;;;5072844;28;20181;-83
2023/12/19 09:28:29;;;;;;;1.25;0.60;;;5.30;99.90;;;;;;5071643;28;20184;-84
2023/12/19 09:30:57;;;;;;;0.63;0.40;;;5.20;99.90;;;;;;5072758;28;20181;-84
2023/12/19 09:33:25;;;;;;;0.60;0.40;;;5.20;99.90;;;;;;5073159;28;20209;-84
2023/12/19 09:35:52;;;;;;;0.65;0.52;;;5.20;99.90;;;;;;5072763;28;20186;-84
2023/12/19 09:38:20;;;;;;;2.10;0.70;;;5.20;99.90;;;;;;5072827;28;20220;-84
2023/12/19 09:40:47;;;;;;;1.67;0.63;;;5.30;99.90;;;;;;5072888;28;20201;-84
2023/12/19 09:43:15;;;;;;;2.58;0.70;;;5.30;99.90;;;;;;5072748;28;20183;-85
2023/12/19 09:45:44;;;;;;;1.10;0.75;;;5.20;99.90;;;;;;5072483;28;20188;-85
2023/12/19 09:48:14;;;;;;;1.92;0.98;;;5.20;99.90;;;;;;5071446;28;20181;-83
2023/12/19 09:50:45;;;;;;;2.03;0.90;;;5.20;99.90;;;;;;5071658;28;20279;-83
2023/12/19 09:53:16;;;;;;;1.38;0.80;;;5.30;99.90;;;;;;5063316;28;20190;-86
2023/12/19 09:55:46;;;;;;;1.45;0.90;;;5.20;99.90;;;;;;5052732;28;20632;-85
2023/12/19 09:58:15;;;;;;;1.42;0.85;;;5.20;99.90;;;;;;5057922;28;20191;-85
2023/12/19 10:00:46;;;;;;;1.63;0.90;;;5.30;99.90;;;;;;5072027;28;20200;-85
2023/12/19 10:03:13;;;;;;;1.73;0.90;;;5.30;99.90;;;;;;5068023;28;20184;-86
2023/12/19 10:05:45;;;;;;;1.58;0.90;;;5.20;99.90;;;;;;5070572;28;20260;-85
2023/12/19 10:08:14;;;;;;;2.00;1.33;;;5.20;99.90;;;;;;5063386;28;20188;-84
2023/12/19 10:10:52;;;;;;;7.88;1.60;;;5.30;99.90;;;;;;5053413;28;20203;-86
2023/12/19 10:13:33;;;;;;;3.55;1.80;;;5.20;99.90;;;;;;5070927;28;20197;-86
2023/12/19 10:16:17;;;;;;;4.40;2.30;;;5.30;99.90;;;;;;5057749;28;20225;-86
2023/12/19 10:19:00;;;;;;;4.63;2.40;;;5.30;99.90;;;;;;5062228;28;20219;-85
2023/12/19 10:21:31;;;;;;;5.75;2.90;;;5.40;99.90;;;;;;5069743;28;20211;-85
2023/12/19 10:24:09;;;;;;;5.57;2.53;;;5.40;99.90;;;;;;5068820;28;20168;-84
2023/12/19 10:26:44;;;;;;;3.60;2.20;;;5.40;99.90;;;;;;5067901;28;20233;-85
2023/12/19 10:29:23;;;;;;;6.28;2.85;;;5.40;99.90;;;;;;5069888;28;20172;-85
2023/12/19 10:31:53;;;;;;;4.07;2.30;;;5.50;99.90;;;;;;5070993;28;20180;-85
2023/12/19 10:34:26;;;;;;;5.82;2.72;;;5.50;99.90;;;;;;5069916;28;20176;-85
2023/12/19 10:37:10;;;;;;;4.85;2.40;;;5.50;99.90;;;;;;5070909;28;20191;-85
2023/12/19 10:39:40;;;;;;;7.68;3.17;;;5.40;99.90;;;;;;5070190;28;20232;-83
2023/12/19 10:42:10;;;;;;;6.05;2.65;;;5.50;99.90;;;;;;5071458;28;20207;-84
2023/12/19 10:44:42;;;;;;;6.32;2.78;;;5.50;99.90;;;;;;5070626;28;20171;-85
2023/12/19 10:47:10;;;;;;;6.35;2.92;;;5.50;99.90;;;;;;5071254;28;20207;-85
2023/12/19 10:49:40;;;;;;;7.25;3.83;;;5.40;99.90;;;;;;5071399;28;20188;-85
2023/12/19 10:52:20;;;;;;;8.48;3.45;;;5.50;99.90;;;;;;5069744;28;20540;-85
2023/12/19 10:55:11;;;;;;;9.73;3.55;;;5.50;99.90;;;;;;5068500;28;20188;-83
2023/12/19 10:57:52;;;;;;;6.65;3.38;;;5.50;99.90;;;;;;5051813;28;20715;-85
2023/12/19 11:00:22;;;;;;;8.45;3.83;;;5.50;99.90;;;;;;5050389;28;20185;-84
2023/12/19 11:03:17;;;;;;;9.20;3.83;;;5.50;99.90;;;;;;5051500;28;20181;-86
2023/12/19 11:05:46;;;;;;;13.80;3.95;;;5.50;99.90;;;;;;5066724;28;20551;-84
2023/12/19 11:08:17;;;;;;;8.20;4.22;;;5.50;99.90;;;;;;5052075;28;20185;-85
2023/12/19 11:11:25;;;;;;;9.75;4.07;;;5.60;99.90;;;;;;5051958;28;20659;-85
2023/12/19 11:13:54;;;;;;;8.88;3.60;;;5.60;99.90;;;;;;5049716;28;20197;-86
2023/12/19 11:16:27;;;;;;;8.50;3.63;;;5.60;99.90;;;;;;5050958;28;20204;-84
2023/12/19 11:19:06;;;;;;;7.57;3.30;;;5.60;99.90;;;;;;5083255;28;20553;-85
2023/12/19 11:21:59;;;;;;;5.18;2.75;;;5.60;99.90;;;;;;5050261;28;20206;-86
2023/12/19 11:24:36;;;;;;;7.22;3.40;;;5.60;99.90;;;;;;5049242;28;20192;-87
2023/12/19 11:27:04;;;;;;;5.40;2.63;;;5.60;99.90;;;;;;5050901;28;20540;-84
2023/12/19 11:29:50;;;;;;;6.18;3.35;;;5.60;99.90;;;;;;5049353;28;20193;-86
2023/12/19 11:32:27;;;;;;;8.68;3.17;;;5.60;99.90;;;;;;5050710;28;20169;-86
2023/12/19 11:35:12;;;;;;;5.53;3.08;;;5.50;99.90;;;;;;5050521;28;20695;-84
2023/12/19 11:37:44;;;;;;;8.70;2.95;;;5.70;99.90;;;;;;5050400;28;20197;-85
2023/12/19 11:40:44;;;;;;;8.98;3.42;;;5.60;99.90;;;;;;5049318;28;20169;-84
2023/12/19 11:43:27;;;;;;;8.18;2.90;;;5.60;99.90;;;;;;5042994;28;20216;-84
2023/12/19 11:46:18;;;;;;;9.23;2.78;;;5.60;99.90;;;;;;5050568;28;20186;-85
2023/12/19 11:48:50;;;;;;;9.70;2.85;;;5.60;99.90;;;;;;5049218;28;20213;-86
2023/12/19 11:51:42;;;;;;;10.13;3.08;;;5.50;99.90;;;;;;5050440;28;20530;-84
2023/12/19 11:54:10;;;;;;;8.65;2.75;;;5.60;99.90;;;;;;5050293;28;20177;-84
2023/12/19 11:56:39;;;;;;;8.65;2.70;;;5.60;99.90;;;;;;5050245;28;20581;-86
2023/12/19 11:59:08;;;;;;;7.50;2.55;;;5.60;99.90;;;;;;5032370;28;20254;-85
2023/12/19 12:01:40;;;;;;;10.98;2.72;;;5.60;99.90;;;;;;5050133;28;20216;-85
2023/12/19 12:04:12;;;;;;;4.03;2.42;;;5.60;99.90;;;;;;5048748;28;20292;-83
2023/12/19 12:06:41;;;;;;;6.03;2.38;;;5.60;99.90;;;;;;5050228;28;20198;-86
2023/12/19 12:09:10;;;;;;;6.00;1.80;;;5.50;99.90;;;;;;5050471;28;20189;-85
2023/12/19 12:11:54;;;;;;;6.80;2.30;;;5.50;99.90;;;;;;5050205;28;20722;-84
2023/12/19 12:14:22;;;;;;;7.32;2.17;;;5.40;99.90;;;;;;5050122;28;20173;-85
2023/12/19 12:16:49;;;;;;;8.50;1.92;;;5.40;99.90;;;;;;5048598;28;20833;-84
2023/12/19 12:19:19;;;;;;;6.28;1.88;;;5.50;99.90;;;;;;5049945;28;20212;-83
2023/12/19 12:21:50;;;;;;;5.28;2.10;;;5.40;99.90;;;;;;5049734;28;20413;-84
2023/12/19 12:24:25;;;;;;;5.25;1.50;;;5.40;99.90;;;;;;5050028;28;20186;-86
2023/12/19 12:27:11;;;;;;;5.65;1.77;;;5.30;99.90;;;;;;5048729;28;20642;-83
2023/12/19 12:29:40;;;;;;;3.90;1.60;;;5.30;99.90;;;;;;5050054;28;20230;-82
2023/12/19 12:32:08;;;;;;;6.95;1.80;;;5.20;99.90;;;;;;5049791;28;20192;-86
2023/12/19 12:34:35;;;;;;;8.55;1.60;;;5.20;99.90;;;;;;5049666;28;20185;-85
2023/12/19 12:37:04;;;;;;;6.82;1.40;;;5.20;99.90;;;;;;5049656;28;20181;-85
2023/12/19 12:39:33;;;;;;;4.72;1.50;;;5.20;99.90;;;;;;5049561;28;20231;-85
2023/12/19 12:42:03;;;;;;;2.88;1.30;;;5.20;99.90;;;;;;5049603;28;20232;-85
2023/12/19 12:44:31;;;;;;;4.15;1.27;;;5.20;99.90;;;;;;5049810;28;20165;-84
2023/12/19 12:46:59;;;;;;;2.88;1.42;;;5.10;99.90;;;;;;5049999;28;20642;-85
2023/12/19 12:49:27;;;;;;;4.65;1.38;;;5.10;99.90;;;;;;5049849;28;20230;-85
2023/12/19 12:51:59;;;;;;;4.22;1.20;;;5.00;99.90;;;;;;5049525;28;20211;-84
2023/12/19 12:54:28;;;;;;;6.30;1.33;;;5.00;99.90;;;;;;5049686;28;20292;-84
2023/12/19 12:56:56;;;;;;;3.40;1.23;;;5.10;99.90;;;;;;5049606;28;20212;-83
2023/12/19 12:59:25;;;;;;;3.88;1.20;;;5.00;99.90;;;;;;5049597;28;20182;-83
2023/12/19 13:01:53;;;;;;;5.35;1.30;;;5.00;99.90;;;;;;5049604;28;20208;-83
2023/12/19 13:04:20;;;;;;;4.38;1.00;;;4.90;99.90;;;;;;5050103;28;20652;-85
2023/12/19 13:06:50;;;;;;;4.68;1.60;;;4.90;99.90;;;;;;5049840;28;20221;-86
2023/12/19 13:09:19;;;;;;;5.95;1.27;;;4.90;99.90;;;;;;5049624;28;20234;-85